Time;durP1;ratioP1;P1;durP2;ratioP2;P2;SDS_P1;SDS_P2;PMS_P1;PMS_P2;Temp;Humidity;BMP_temperature;BMP_pressure;BME280_temperature;BME280_humidity;BME280_pressure;Samples;Min_cycle;Max_cycle;Signal;HPM_P1;HPM_P2
2022/01/28 00:01:39;;;;;;;12.93;4.87;;;;;;;;;;4955087;28;20224;-64
2022/01/28 00:04:15;;;;;;;5.40;4.03;;;;;;;;;;4950958;28;20797;-64
2022/01/28 00:06:43;;;;;;;4.17;3.73;;;;;;;;;;4947401;28;20609;-64
2022/01/28 00:09:10;;;;;;;3.80;3.50;;;;;;;;;;4942589;28;20353;-64
2022/01/28 00:11:38;;;;;;;4.73;4.23;;;;;;;;;;4949103;28;20248;-63
2022/01/28 00:14:25;;;;;;;4.33;3.70;;;;;;;;;;4953221;28;20216;-65
2022/01/28 00:17:39;;;;;;;4.00;3.63;;;;;;;;;;4951706;28;20228;-65
2022/01/28 00:37:00;;;;;;;4.73;4.10;;;;;;;;;;4948757;28;20367;-65
2022/01/28 00:39:28;;;;;;;5.20;4.63;;;;;;;;;;4952016;28;20258;-62
2022/01/28 00:41:55;;;;;;;5.10;4.33;;;;;;;;;;4953744;28;20276;-62
2022/01/28 00:44:23;;;;;;;7.17;4.83;;;;;;;;;;4947678;28;20213;-65
2022/01/28 00:46:50;;;;;;;5.40;4.87;;;;;;;;;;4943386;28;20852;-62
2022/01/28 00:49:18;;;;;;;6.37;4.43;;;;;;;;;;4948282;28;20216;-64
2022/01/28 00:51:45;;;;;;;4.77;4.27;;;;;;;;;;4951621;28;20224;-64
2022/01/28 00:54:13;;;;;;;5.10;4.33;;;;;;;;;;4945234;28;20220;-65
2022/01/28 00:56:41;;;;;;;8.23;5.03;;;;;;;;;;4944507;28;20228;-64
2022/01/28 00:59:08;;;;;;;5.57;4.63;;;;;;;;;;4950634;28;20264;-64
2022/01/28 01:01:35;;;;;;;5.63;4.70;;;;;;;;;;4951612;28;20687;-62
2022/01/28 01:04:03;;;;;;;5.30;4.20;;;;;;;;;;4951296;28;20229;-64
2022/01/28 01:06:31;;;;;;;5.70;4.53;;;;;;;;;;4948099;28;20876;-63
2022/01/28 01:08:59;;;;;;;9.37;8.10;;;;;;;;;;4957114;28;20210;-64
2022/01/28 01:11:27;;;;;;;5.80;4.77;;;;;;;;;;4953544;28;20231;-64
2022/01/28 01:13:55;;;;;;;4.60;4.03;;;;;;;;;;4956117;28;20232;-62
2022/01/28 01:16:35;;;;;;;6.97;5.00;;;;;;;;;;4943459;28;20208;-62
2022/01/28 01:19:21;;;;;;;5.33;4.20;;;;;;;;;;4955597;28;20236;-65
2022/01/28 01:21:54;;;;;;;5.83;4.90;;;;;;;;;;4955272;28;20228;-64
2022/01/28 01:24:24;;;;;;;6.23;4.33;;;;;;;;;;4955623;28;20212;-63
2022/01/28 01:26:52;;;;;;;6.53;5.43;;;;;;;;;;4952270;28;20213;-64
2022/01/28 01:29:22;;;;;;;8.93;6.50;;;;;;;;;;4951168;28;20217;-64
2022/01/28 01:31:50;;;;;;;7.20;5.27;;;;;;;;;;4953472;28;20264;-64
2022/01/28 01:34:21;;;;;;;9.13;6.03;;;;;;;;;;4953220;28;20217;-63
2022/01/28 01:36:49;;;;;;;22.90;13.13;;;;;;;;;;4950013;28;20236;-64
2022/01/28 01:39:22;;;;;;;11.03;9.30;;;;;;;;;;4954317;28;20212;-65
2022/01/28 01:42:00;;;;;;;11.20;7.97;;;;;;;;;;4951871;28;20239;-62
2022/01/28 01:45:00;;;;;;;6.43;5.43;;;;;;;;;;4953189;28;20734;-64
2022/01/28 01:53:16;;;;;;;7.07;6.37;;;;;;;;;;4896454;29;20225;-63
2022/01/28 01:55:44;;;;;;;7.67;6.10;;;;;;;;;;4952836;28;20209;-63
2022/01/28 01:58:11;;;;;;;6.87;6.00;;;;;;;;;;4952385;28;20279;-64
2022/01/28 02:00:38;;;;;;;7.83;6.63;;;;;;;;;;4950680;28;20220;-62
2022/01/28 02:03:06;;;;;;;9.20;7.07;;;;;;;;;;4956865;28;20208;-63
2022/01/28 02:05:34;;;;;;;7.13;5.73;;;;;;;;;;4948111;28;20223;-63
2022/01/28 02:08:06;;;;;;;7.37;6.37;;;;;;;;;;4956116;28;20257;-62
2022/01/28 02:10:34;;;;;;;6.53;5.27;;;;;;;;;;4948998;28;20317;-64
2022/01/28 02:13:02;;;;;;;6.43;5.70;;;;;;;;;;4959751;28;20774;-64
2022/01/28 02:15:29;;;;;;;7.63;6.47;;;;;;;;;;4953892;28;20217;-63
2022/01/28 02:17:59;;;;;;;7.03;6.30;;;;;;;;;;4950676;28;20275;-64
2022/01/28 02:20:37;;;;;;;7.23;6.33;;;;;;;;;;4955577;28;21562;-65
2022/01/28 02:23:05;;;;;;;7.33;5.03;;;;;;;;;;4955351;28;20232;-65
2022/01/28 02:25:33;;;;;;;8.03;6.50;;;;;;;;;;4954211;28;20260;-63
2022/01/28 02:28:09;;;;;;;8.53;6.27;;;;;;;;;;4949648;28;20300;-61
2022/01/28 02:30:37;;;;;;;7.43;5.57;;;;;;;;;;4954755;28;20235;-63
2022/01/28 02:33:17;;;;;;;6.90;5.93;;;;;;;;;;4962096;28;20232;-63
2022/01/28 02:35:46;;;;;;;7.23;5.13;;;;;;;;;;4949938;28;20224;-62
2022/01/28 02:38:16;;;;;;;5.93;5.20;;;;;;;;;;4976037;28;20256;-64
2022/01/28 02:40:59;;;;;;;8.17;5.80;;;;;;;;;;4957367;28;20252;-63
2022/01/28 02:43:45;;;;;;;5.87;5.27;;;;;;;;;;4959235;28;20259;-65
2022/01/28 02:46:15;;;;;;;6.93;5.97;;;;;;;;;;4957316;28;21782;-63
2022/01/28 02:49:04;;;;;;;6.13;4.80;;;;;;;;;;4951720;28;20368;-63
2022/01/28 02:51:31;;;;;;;7.27;5.60;;;;;;;;;;4954701;28;20228;-62
2022/01/28 02:54:01;;;;;;;9.20;5.47;;;;;;;;;;4954523;28;20228;-65
2022/01/28 02:59:04;;;;;;;7.33;5.77;;;;;;;;;;4955482;28;20240;-66
2022/01/28 03:01:32;;;;;;;7.57;5.80;;;;;;;;;;4956281;28;20980;-64
2022/01/28 03:04:02;;;;;;;6.30;5.57;;;;;;;;;;4956244;28;20216;-65
2022/01/28 03:06:29;;;;;;;7.87;5.90;;;;;;;;;;4953550;28;20268;-64
2022/01/28 03:09:08;;;;;;;7.03;5.80;;;;;;;;;;4951177;28;20610;-65
2022/01/28 03:14:18;;;;;;;7.67;5.67;;;;;;;;;;4957560;28;20209;-64
2022/01/28 03:17:01;;;;;;;7.73;5.47;;;;;;;;;;4955315;28;20224;-63
2022/01/28 03:19:41;;;;;;;8.17;6.20;;;;;;;;;;4953505;28;20221;-63
2022/01/28 03:22:09;;;;;;;7.33;5.47;;;;;;;;;;4946637;28;20273;-64
2022/01/28 03:24:37;;;;;;;7.40;5.97;;;;;;;;;;4953035;28;21053;-63
2022/01/28 03:27:11;;;;;;;10.07;6.13;;;;;;;;;;4957953;28;20232;-64
2022/01/28 03:29:38;;;;;;;8.37;6.00;;;;;;;;;;4962605;28;20217;-63
2022/01/28 03:32:08;;;;;;;8.50;6.77;;;;;;;;;;4961809;28;20208;-64
2022/01/28 03:34:35;;;;;;;8.00;5.77;;;;;;;;;;4956633;28;20209;-64
2022/01/28 03:37:05;;;;;;;8.40;6.03;;;;;;;;;;4950656;28;20216;-63
2022/01/28 03:39:32;;;;;;;7.67;6.10;;;;;;;;;;4951740;28;20989;-63
2022/01/28 03:41:59;;;;;;;7.97;6.20;;;;;;;;;;4952802;28;20232;-62
2022/01/28 03:44:27;;;;;;;12.77;8.20;;;;;;;;;;4957744;28;20205;-65
2022/01/28 03:46:55;;;;;;;9.93;6.80;;;;;;;;;;4952105;28;20211;-65
2022/01/28 03:49:22;;;;;;;12.00;6.90;;;;;;;;;;4951914;28;20240;-64
2022/01/28 03:51:50;;;;;;;8.53;6.77;;;;;;;;;;4959315;28;20232;-64
2022/01/28 03:54:17;;;;;;;7.53;6.73;;;;;;;;;;4955947;28;20699;-64
2022/01/28 03:56:44;;;;;;;8.43;6.30;;;;;;;;;;4947190;28;20220;-64
2022/01/28 03:59:12;;;;;;;7.83;6.27;;;;;;;;;;4971740;28;20236;-64
2022/01/28 04:01:40;;;;;;;8.50;6.30;;;;;;;;;;4954961;28;20229;-61
2022/01/28 04:12:30;;;;;;;9.70;5.90;;;;;;;;;;4959328;28;20322;-64
2022/01/28 04:15:35;;;;;;;9.63;6.60;;;;;;;;;;4953242;28;20223;-63
2022/01/28 04:17:46;;;;;;;8.30;5.67;;;;;;;;;;4961182;28;20240;-62
2022/01/28 04:20:14;;;;;;;7.50;6.10;;;;;;;;;;4952690;28;20223;-62
2022/01/28 04:22:41;;;;;;;8.87;7.23;;;;;;;;;;4951105;28;20205;-63
2022/01/28 04:25:09;;;;;;;7.33;6.47;;;;;;;;;;4959828;28;20623;-62
2022/01/28 04:27:36;;;;;;;7.10;6.17;;;;;;;;;;4950661;28;20219;-61
2022/01/28 04:30:04;;;;;;;7.37;6.13;;;;;;;;;;4950421;28;20236;-63
2022/01/28 04:32:32;;;;;;;8.97;6.83;;;;;;;;;;4953125;28;20219;-62
2022/01/28 04:35:00;;;;;;;9.00;6.90;;;;;;;;;;4950535;28;20686;-62
2022/01/28 04:37:36;;;;;;;11.27;6.93;;;;;;;;;;4959440;28;20240;-63
2022/01/28 04:43:11;;;;;;;11.57;7.10;;;;;;;;;;4959753;28;20223;-65
2022/01/28 04:45:53;;;;;;;8.60;7.13;;;;;;;;;;4954972;28;20366;-64
2022/01/28 04:48:35;;;;;;;8.60;6.70;;;;;;;;;;4959541;28;20208;-63
2022/01/28 04:56:54;;;;;;;10.50;5.90;;;;;;;;;;4956967;28;20220;-64
2022/01/28 05:07:42;;;;;;;8.03;5.30;;;;;;;;;;4915957;28;20756;-63
2022/01/28 05:12:57;;;;;;;6.97;5.90;;;;;;;;;;4948016;28;20271;-63
2022/01/28 05:28:46;;;;;;;7.47;6.07;;;;;;;;;;4946919;28;20224;-64
2022/01/28 05:31:13;;;;;;;8.23;5.90;;;;;;;;;;4944225;28;20240;-63
2022/01/28 05:33:41;;;;;;;9.50;5.97;;;;;;;;;;4962277;28;20251;-62
2022/01/28 05:36:08;;;;;;;7.50;5.80;;;;;;;;;;4962858;28;20692;-63
2022/01/28 05:38:36;;;;;;;9.83;6.17;;;;;;;;;;4959754;28;20228;-64
2022/01/28 05:41:03;;;;;;;9.17;7.20;;;;;;;;;;4955738;28;20231;-63
2022/01/28 05:43:31;;;;;;;8.63;6.17;;;;;;;;;;4956504;28;20676;-64
2022/01/28 05:45:58;;;;;;;8.50;6.27;;;;;;;;;;4963001;28;20656;-63
2022/01/28 05:48:26;;;;;;;9.77;6.80;;;;;;;;;;4970084;28;20220;-64
2022/01/28 05:50:55;;;;;;;11.20;6.30;;;;;;;;;;4956723;28;20251;-62
2022/01/28 05:53:23;;;;;;;7.97;5.93;;;;;;;;;;4963552;28;20279;-64
2022/01/28 05:55:50;;;;;;;12.17;6.60;;;;;;;;;;4966595;28;20554;-64
2022/01/28 05:58:19;;;;;;;8.87;6.70;;;;;;;;;;4954334;28;20333;-62
2022/01/28 06:00:46;;;;;;;8.83;6.30;;;;;;;;;;4950564;28;20227;-65
2022/01/28 06:03:13;;;;;;;9.70;7.13;;;;;;;;;;4956159;28;20227;-62
2022/01/28 06:05:42;;;;;;;10.23;7.33;;;;;;;;;;4957768;28;20553;-61
2022/01/28 06:08:09;;;;;;;12.37;7.77;;;;;;;;;;4951914;28;20211;-65
2022/01/28 06:10:36;;;;;;;10.87;6.27;;;;;;;;;;4960788;28;20483;-65
2022/01/28 06:13:05;;;;;;;9.30;6.30;;;;;;;;;;4958487;28;20224;-63
2022/01/28 06:15:32;;;;;;;9.07;6.60;;;;;;;;;;4957334;28;20213;-64
2022/01/28 06:18:00;;;;;;;9.53;6.20;;;;;;;;;;4948913;28;20233;-65
2022/01/28 06:20:27;;;;;;;7.00;5.20;;;;;;;;;;4954937;28;20236;-65
2022/01/28 06:22:55;;;;;;;11.03;6.27;;;;;;;;;;4956794;28;20214;-63
2022/01/28 06:25:22;;;;;;;10.10;5.83;;;;;;;;;;4957313;28;20209;-65
2022/01/28 06:27:49;;;;;;;11.17;7.00;;;;;;;;;;4957363;28;20216;-61
2022/01/28 06:30:19;;;;;;;9.60;7.00;;;;;;;;;;4958809;28;20234;-64
2022/01/28 06:32:47;;;;;;;10.73;6.43;;;;;;;;;;4961837;28;20289;-63
2022/01/28 06:35:15;;;;;;;8.37;6.73;;;;;;;;;;4952041;28;20303;-63
2022/01/28 06:37:44;;;;;;;8.93;6.47;;;;;;;;;;4951696;28;21233;-65
2022/01/28 06:40:13;;;;;;;12.30;6.70;;;;;;;;;;4956570;28;20228;-63
2022/01/28 06:42:41;;;;;;;9.80;7.17;;;;;;;;;;4961426;28;20240;-65
2022/01/28 06:45:08;;;;;;;9.87;7.30;;;;;;;;;;4960149;28;20262;-63
2022/01/28 06:47:36;;;;;;;10.93;6.60;;;;;;;;;;4965018;28;20283;-63
2022/01/28 06:50:07;;;;;;;10.50;6.30;;;;;;;;;;4956892;28;20208;-64
2022/01/28 06:52:35;;;;;;;10.40;7.07;;;;;;;;;;4957446;28;20220;-64
2022/01/28 06:55:04;;;;;;;12.07;6.93;;;;;;;;;;4957899;28;20266;-62
2022/01/28 06:57:31;;;;;;;9.97;7.30;;;;;;;;;;4951489;28;20781;-63
2022/01/28 06:59:59;;;;;;;9.67;6.83;;;;;;;;;;4953131;28;20286;-63
2022/01/28 07:02:26;;;;;;;11.93;7.27;;;;;;;;;;4964710;28;20212;-64
2022/01/28 07:04:54;;;;;;;10.00;7.43;;;;;;;;;;4958088;28;20217;-64
2022/01/28 07:07:24;;;;;;;8.03;6.70;;;;;;;;;;4954239;28;20261;-63
2022/01/28 07:09:52;;;;;;;11.77;7.73;;;;;;;;;;4969790;28;20212;-65
2022/01/28 07:12:20;;;;;;;13.13;7.50;;;;;;;;;;4957144;28;20669;-65
2022/01/28 07:14:47;;;;;;;11.10;6.87;;;;;;;;;;4961648;28;20278;-65
2022/01/28 07:17:15;;;;;;;9.97;6.73;;;;;;;;;;4952224;28;20206;-64
2022/01/28 07:19:43;;;;;;;9.30;7.43;;;;;;;;;;4959769;28;20227;-64
2022/01/28 07:22:11;;;;;;;9.50;7.07;;;;;;;;;;4954446;28;20210;-63
2022/01/28 07:24:38;;;;;;;9.63;7.33;;;;;;;;;;4954380;28;20216;-62
2022/01/28 07:27:06;;;;;;;9.73;6.80;;;;;;;;;;4956859;28;20327;-64
2022/01/28 07:29:36;;;;;;;9.47;6.40;;;;;;;;;;4953374;28;21281;-63
2022/01/28 07:32:04;;;;;;;11.03;6.33;;;;;;;;;;4956257;28;20703;-62
2022/01/28 07:34:31;;;;;;;8.17;5.70;;;;;;;;;;4952192;28;20208;-63
2022/01/28 07:36:58;;;;;;;8.20;6.00;;;;;;;;;;4954550;28;20224;-63
2022/01/28 07:39:27;;;;;;;10.17;6.20;;;;;;;;;;4954242;28;20398;-63
2022/01/28 07:41:55;;;;;;;10.00;6.47;;;;;;;;;;4953765;28;20797;-63
2022/01/28 07:44:22;;;;;;;12.23;6.00;;;;;;;;;;4949640;28;20211;-64
2022/01/28 07:46:49;;;;;;;8.37;5.33;;;;;;;;;;4952854;28;20211;-63
2022/01/28 07:49:17;;;;;;;5.87;5.20;;;;;;;;;;4951085;28;20216;-64
2022/01/28 07:51:45;;;;;;;9.40;6.07;;;;;;;;;;4955458;28;20630;-62
2022/01/28 07:54:12;;;;;;;8.23;5.47;;;;;;;;;;4959055;28;20310;-64
2022/01/28 07:56:40;;;;;;;9.67;6.20;;;;;;;;;;4956166;28;20212;-62
2022/01/28 07:59:07;;;;;;;8.63;6.93;;;;;;;;;;4964701;28;20239;-64
2022/01/28 08:01:34;;;;;;;7.70;5.47;;;;;;;;;;4957572;28;20244;-64
2022/01/28 08:04:02;;;;;;;5.93;5.33;;;;;;;;;;4942967;28;20210;-65
2022/01/28 08:06:30;;;;;;;8.43;5.33;;;;;;;;;;4948583;28;20220;-64
2022/01/28 08:08:59;;;;;;;6.53;4.73;;;;;;;;;;4949167;28;20621;-64
2022/01/28 08:11:26;;;;;;;6.00;5.03;;;;;;;;;;4965789;28;20240;-64
2022/01/28 08:13:55;;;;;;;6.40;4.37;;;;;;;;;;4946448;28;20303;-64
2022/01/28 08:16:23;;;;;;;7.80;4.60;;;;;;;;;;4949823;28;20232;-64
2022/01/28 08:18:50;;;;;;;6.57;4.70;;;;;;;;;;4950000;28;23202;-64
2022/01/28 08:21:18;;;;;;;7.03;5.30;;;;;;;;;;4946964;28;20229;-64
2022/01/28 08:23:45;;;;;;;9.37;5.27;;;;;;;;;;4944695;28;20240;-63
2022/01/28 08:26:13;;;;;;;6.53;5.13;;;;;;;;;;4953954;28;20216;-65
2022/01/28 08:28:41;;;;;;;8.30;5.23;;;;;;;;;;4950592;28;20217;-64
2022/01/28 08:31:09;;;;;;;6.73;5.07;;;;;;;;;;4955801;28;20228;-63
2022/01/28 08:33:37;;;;;;;7.67;5.10;;;;;;;;;;4957879;28;20629;-64
2022/01/28 08:36:05;;;;;;;10.10;5.43;;;;;;;;;;4959541;28;20213;-64
2022/01/28 08:38:39;;;;;;;6.40;4.77;;;;;;;;;;4918788;28;1285760;-63
2022/01/28 08:41:06;;;;;;;6.07;5.10;;;;;;;;;;4951905;28;20282;-65
2022/01/28 08:43:34;;;;;;;7.20;4.70;;;;;;;;;;4952110;28;21063;-64
2022/01/28 08:46:01;;;;;;;9.53;4.77;;;;;;;;;;4955652;28;20215;-63
2022/01/28 08:48:29;;;;;;;7.27;4.77;;;;;;;;;;4958156;28;20617;-63
2022/01/28 08:50:58;;;;;;;7.47;5.10;;;;;;;;;;4962722;28;20320;-64
2022/01/28 08:53:26;;;;;;;7.80;5.13;;;;;;;;;;4959582;28;20210;-64
2022/01/28 08:55:53;;;;;;;5.60;4.40;;;;;;;;;;4967525;28;20196;-64
2022/01/28 08:58:22;;;;;;;8.93;4.93;;;;;;;;;;4960807;28;20216;-63
2022/01/28 09:00:50;;;;;;;6.73;4.90;;;;;;;;;;4957714;28;20235;-64
2022/01/28 09:03:19;;;;;;;8.73;5.07;;;;;;;;;;4959285;28;20233;-65
2022/01/28 09:05:49;;;;;;;9.93;5.17;;;;;;;;;;4965134;28;20205;-64
2022/01/28 09:08:16;;;;;;;6.33;5.17;;;;;;;;;;4957958;28;20213;-65
2022/01/28 09:10:57;;;;;;;7.17;4.90;;;;;;;;;;4959523;28;20229;-63
2022/01/28 09:13:37;;;;;;;6.77;5.00;;;;;;;;;;4956506;28;20212;-64
2022/01/28 09:16:05;;;;;;;8.83;5.40;;;;;;;;;;4959405;28;20316;-62
2022/01/28 09:18:32;;;;;;;7.43;5.67;;;;;;;;;;4970723;28;20212;-62
2022/01/28 09:21:00;;;;;;;7.87;4.93;;;;;;;;;;4956808;28;20229;-63
2022/01/28 09:23:27;;;;;;;9.73;5.43;;;;;;;;;;4954542;28;20213;-64
2022/01/28 09:25:54;;;;;;;8.63;4.90;;;;;;;;;;4956707;28;20212;-63
2022/01/28 09:28:22;;;;;;;6.53;4.80;;;;;;;;;;4953566;28;21274;-63
2022/01/28 09:30:49;;;;;;;5.20;4.60;;;;;;;;;;4943750;28;20236;-64
2022/01/28 09:33:17;;;;;;;7.43;5.10;;;;;;;;;;4961387;28;20223;-64
2022/01/28 09:35:44;;;;;;;5.87;4.40;;;;;;;;;;4953372;28;20826;-64
2022/01/28 09:38:12;;;;;;;8.67;4.30;;;;;;;;;;4959276;28;20220;-64
2022/01/28 09:40:39;;;;;;;6.37;4.60;;;;;;;;;;4952377;28;20233;-63
2022/01/28 09:43:08;;;;;;;7.37;4.70;;;;;;;;;;4971060;28;20204;-64
2022/01/28 09:45:36;;;;;;;5.30;4.30;;;;;;;;;;4951116;28;20205;-64
2022/01/28 09:48:03;;;;;;;7.57;4.43;;;;;;;;;;4949940;28;20230;-64
2022/01/28 09:50:32;;;;;;;4.70;4.00;;;;;;;;;;4956786;28;20224;-64
2022/01/28 09:53:00;;;;;;;6.47;5.07;;;;;;;;;;4956196;28;20201;-63
2022/01/28 09:55:28;;;;;;;6.97;4.90;;;;;;;;;;4953389;28;20216;-64
2022/01/28 09:57:59;;;;;;;8.57;5.60;;;;;;;;;;4952796;28;20255;-64
2022/01/28 10:00:27;;;;;;;9.53;4.50;;;;;;;;;;4958266;28;20249;-64
2022/01/28 10:02:55;;;;;;;7.70;4.40;;;;;;;;;;4957211;28;20556;-65
2022/01/28 10:05:29;;;;;;;8.40;5.30;;;;;;;;;;4956886;28;20209;-64
2022/01/28 10:08:00;;;;;;;5.80;3.90;;;;;;;;;;4957056;28;20733;-65
2022/01/28 10:10:40;;;;;;;6.97;3.80;;;;;;;;;;4961676;28;20225;-65
2022/01/28 10:13:13;;;;;;;9.13;4.13;;;;;;;;;;4963286;28;20213;-66
2022/01/28 10:15:55;;;;;;;7.87;5.57;;;;;;;;;;4961931;28;20283;-66
2022/01/28 10:18:39;;;;;;;5.37;3.70;;;;;;;;;;4962857;28;20679;-64
2022/01/28 10:21:18;;;;;;;7.00;4.53;;;;;;;;;;4956369;28;20228;-64
2022/01/28 10:23:55;;;;;;;7.50;4.30;;;;;;;;;;4958246;28;20733;-64
2022/01/28 10:26:33;;;;;;;8.13;5.00;;;;;;;;;;4962958;28;20212;-65
2022/01/28 10:29:01;;;;;;;6.53;4.07;;;;;;;;;;4959488;28;20209;-65
2022/01/28 10:31:58;;;;;;;7.03;4.00;;;;;;;;;;4967845;28;20367;-62
2022/01/28 10:34:31;;;;;;;6.77;3.77;;;;;;;;;;4941540;28;20209;-64
2022/01/28 10:37:14;;;;;;;5.00;3.53;;;;;;;;;;4957066;28;20220;-63
2022/01/28 10:39:51;;;;;;;4.20;3.20;;;;;;;;;;4961402;28;20247;-64
2022/01/28 10:42:21;;;;;;;10.63;5.27;;;;;;;;;;4961384;28;20340;-65
2022/01/28 10:44:58;;;;;;;11.70;6.13;;;;;;;;;;4962254;28;20197;-64
2022/01/28 10:47:32;;;;;;;5.93;4.27;;;;;;;;;;4956901;28;20209;-64
2022/01/28 10:50:00;;;;;;;4.83;3.40;;;;;;;;;;4954798;28;20982;-63
2022/01/28 10:52:33;;;;;;;5.47;3.40;;;;;;;;;;4951001;28;21890;-65
2022/01/28 10:55:03;;;;;;;6.93;3.20;;;;;;;;;;4953272;28;20205;-64
2022/01/28 10:57:30;;;;;;;4.43;3.03;;;;;;;;;;4955450;28;20258;-63
2022/01/28 10:59:58;;;;;;;4.03;3.30;;;;;;;;;;4950955;28;20232;-64
2022/01/28 11:02:26;;;;;;;6.13;3.27;;;;;;;;;;4957394;28;20505;-63
2022/01/28 11:04:57;;;;;;;4.60;2.87;;;;;;;;;;4956722;28;20694;-64
2022/01/28 11:07:28;;;;;;;4.17;3.00;;;;;;;;;;4952404;28;20255;-65
2022/01/28 11:09:55;;;;;;;5.63;3.70;;;;;;;;;;4943129;28;20221;-65
2022/01/28 11:12:23;;;;;;;6.83;2.90;;;;;;;;;;4944635;28;20213;-65
2022/01/28 11:14:51;;;;;;;4.27;3.40;;;;;;;;;;4955036;28;20216;-62
2022/01/28 11:17:18;;;;;;;7.47;3.80;;;;;;;;;;4957828;28;20204;-64
2022/01/28 11:19:47;;;;;;;7.53;4.90;;;;;;;;;;4948381;28;21564;-65
2022/01/28 11:22:21;;;;;;;5.47;3.13;;;;;;;;;;4964604;28;20204;-63
2022/01/28 11:25:00;;;;;;;5.93;4.03;;;;;;;;;;4950587;28;20197;-64
2022/01/28 11:27:32;;;;;;;5.63;3.13;;;;;;;;;;4954143;28;20213;-64
2022/01/28 11:30:18;;;;;;;5.50;3.40;;;;;;;;;;4955107;28;20217;-65
2022/01/28 11:33:09;;;;;;;6.90;4.03;;;;;;;;;;4965966;28;20662;-64
2022/01/28 11:35:41;;;;;;;4.27;3.13;;;;;;;;;;4968067;28;20208;-64
2022/01/28 11:38:27;;;;;;;4.40;3.37;;;;;;;;;;4967104;28;20271;-65
2022/01/28 11:40:58;;;;;;;4.73;3.50;;;;;;;;;;4968326;28;20233;-64
2022/01/28 11:43:27;;;;;;;5.10;3.50;;;;;;;;;;4963771;28;20197;-64
2022/01/28 11:46:05;;;;;;;6.80;3.57;;;;;;;;;;4957053;28;20208;-64
2022/01/28 11:48:51;;;;;;;6.97;3.70;;;;;;;;;;4951446;28;20206;-64
2022/01/28 11:51:20;;;;;;;4.77;2.97;;;;;;;;;;4961859;28;20228;-64
2022/01/28 11:53:55;;;;;;;8.80;3.37;;;;;;;;;;4965894;28;20229;-63
2022/01/28 11:56:24;;;;;;;3.27;2.60;;;;;;;;;;4961454;28;20240;-64
2022/01/28 11:58:57;;;;;;;6.70;2.73;;;;;;;;;;4973515;28;20307;-65
2022/01/28 12:01:45;;;;;;;6.33;3.50;;;;;;;;;;4960531;28;20324;-64
2022/01/28 12:04:25;;;;;;;5.67;3.10;;;;;;;;;;4954980;28;20243;-63
2022/01/28 12:06:55;;;;;;;4.77;3.00;;;;;;;;;;4967831;28;20213;-63
2022/01/28 12:09:26;;;;;;;5.03;2.80;;;;;;;;;;4964631;28;20636;-63
2022/01/28 12:11:54;;;;;;;4.00;3.27;;;;;;;;;;4969132;28;20220;-64
2022/01/28 12:14:40;;;;;;;4.97;3.17;;;;;;;;;;4959424;28;20579;-63
2022/01/28 12:17:26;;;;;;;5.27;3.50;;;;;;;;;;4961777;28;20217;-64
2022/01/28 12:20:13;;;;;;;5.20;3.43;;;;;;;;;;4969234;28;20707;-64
2022/01/28 12:22:59;;;;;;;4.43;3.43;;;;;;;;;;4958558;28;21007;-63
2022/01/28 12:25:53;;;;;;;5.47;3.10;;;;;;;;;;4960598;28;20226;-62
2022/01/28 12:28:22;;;;;;;5.13;3.33;;;;;;;;;;4961462;28;20217;-63
2022/01/28 12:31:02;;;;;;;6.23;3.20;;;;;;;;;;4959372;28;20237;-63
2022/01/28 12:33:31;;;;;;;5.67;3.27;;;;;;;;;;4977566;28;20225;-64
2022/01/28 12:36:01;;;;;;;4.10;3.37;;;;;;;;;;4987713;28;20204;-63
2022/01/28 12:38:31;;;;;;;5.33;3.17;;;;;;;;;;4965832;28;20208;-65
2022/01/28 12:41:07;;;;;;;3.93;2.80;;;;;;;;;;4963337;28;20237;-63
2022/01/28 12:43:37;;;;;;;5.17;2.90;;;;;;;;;;4966616;28;20213;-64
2022/01/28 12:46:08;;;;;;;4.90;2.90;;;;;;;;;;4963396;28;20917;-62
2022/01/28 12:48:36;;;;;;;5.10;2.57;;;;;;;;;;4951420;28;20245;-65
2022/01/28 12:51:04;;;;;;;4.37;2.77;;;;;;;;;;4951649;28;20313;-63
2022/01/28 12:53:36;;;;;;;3.67;2.83;;;;;;;;;;4948586;28;20453;-64
2022/01/28 12:56:04;;;;;;;4.17;3.00;;;;;;;;;;4951571;28;20217;-62
2022/01/28 12:58:47;;;;;;;3.40;2.67;;;;;;;;;;4950679;28;20292;-63
2022/01/28 13:01:16;;;;;;;4.50;2.73;;;;;;;;;;4955230;28;20244;-62
2022/01/28 13:03:55;;;;;;;2.60;2.40;;;;;;;;;;4943058;28;20618;-63
2022/01/28 13:06:27;;;;;;;3.80;2.83;;;;;;;;;;4953517;28;20213;-62
2022/01/28 13:08:55;;;;;;;5.67;2.70;;;;;;;;;;4950036;28;20606;-64
2022/01/28 13:11:23;;;;;;;4.00;3.33;;;;;;;;;;4949276;28;20232;-63
2022/01/28 13:13:52;;;;;;;4.47;3.07;;;;;;;;;;4951257;28;20683;-64
2022/01/28 13:16:29;;;;;;;8.00;4.33;;;;;;;;;;4953307;28;20214;-63
2022/01/28 13:18:58;;;;;;;2.60;2.40;;;;;;;;;;4946492;28;20632;-63
2022/01/28 13:21:25;;;;;;;3.83;2.63;;;;;;;;;;4948459;28;20240;-63
2022/01/28 13:24:11;;;;;;;7.13;6.43;;;;;;;;;;4953866;28;20212;-62
2022/01/28 13:26:52;;;;;;;12.83;7.90;;;;;;;;;;4948998;28;20211;-63
2022/01/28 13:29:27;;;;;;;3.53;3.03;;;;;;;;;;4959977;28;20212;-62
2022/01/28 13:31:58;;;;;;;5.27;3.53;;;;;;;;;;4954589;28;20236;-64
2022/01/28 13:34:26;;;;;;;3.43;3.13;;;;;;;;;;4975946;28;20205;-62
2022/01/28 13:36:56;;;;;;;8.13;4.93;;;;;;;;;;4960929;28;20352;-65
2022/01/28 13:39:30;;;;;;;5.63;3.80;;;;;;;;;;4961066;28;20209;-63
2022/01/28 13:42:08;;;;;;;3.70;2.63;;;;;;;;;;4951881;28;20572;-63
2022/01/28 13:44:39;;;;;;;4.47;2.80;;;;;;;;;;4957996;28;20221;-61
2022/01/28 13:47:06;;;;;;;4.77;2.90;;;;;;;;;;4951433;28;20292;-63
2022/01/28 13:49:39;;;;;;;4.55;2.92;;;;;;;;;;4954120;28;20507;-63
2022/01/28 13:52:22;;;;;;;5.40;3.10;;;;;;;;;;4948915;28;20239;-62
2022/01/28 13:54:50;;;;;;;5.63;2.90;;;;;;;;;;4952487;28;20212;-64
2022/01/28 13:57:17;;;;;;;4.23;2.30;;;;;;;;;;4952185;28;20205;-63
2022/01/28 13:59:45;;;;;;;2.90;2.10;;;;;;;;;;4945225;28;20208;-63
2022/01/28 14:02:13;;;;;;;5.10;2.53;;;;;;;;;;4952505;28;20295;-63
2022/01/28 14:04:43;;;;;;;3.07;2.57;;;;;;;;;;4958689;28;20796;-63
2022/01/28 14:07:13;;;;;;;3.80;2.10;;;;;;;;;;4957046;28;20216;-64
2022/01/28 14:09:44;;;;;;;5.03;2.53;;;;;;;;;;4979019;28;20224;-64
2022/01/28 14:12:22;;;;;;;7.10;2.67;;;;;;;;;;4968915;28;20733;-64
2022/01/28 14:14:51;;;;;;;4.60;2.60;;;;;;;;;;4964290;28;20224;-64
2022/01/28 14:17:18;;;;;;;3.43;2.53;;;;;;;;;;4957882;28;20213;-64
2022/01/28 14:19:46;;;;;;;5.13;2.50;;;;;;;;;;4960573;28;20208;-63
2022/01/28 14:22:13;;;;;;;5.03;2.60;;;;;;;;;;4963370;28;20206;-64
2022/01/28 14:24:57;;;;;;;4.17;2.77;;;;;;;;;;4966945;28;20300;-63
2022/01/28 14:30:04;;;;;;;3.17;2.80;;;;;;;;;;4957262;28;20746;-63
2022/01/28 14:32:33;;;;;;;3.57;3.10;;;;;;;;;;4963359;28;20264;-63
2022/01/28 14:35:01;;;;;;;3.17;2.77;;;;;;;;;;4969361;28;20215;-64
2022/01/28 14:37:30;;;;;;;6.67;4.53;;;;;;;;;;4961897;28;20224;-64
2022/01/28 14:39:58;;;;;;;6.73;3.10;;;;;;;;;;4954788;28;20216;-62
2022/01/28 14:42:25;;;;;;;9.67;5.27;;;;;;;;;;4955910;28;20212;-63
2022/01/28 14:44:53;;;;;;;17.83;9.83;;;;;;;;;;4948219;28;20201;-64
2022/01/28 14:47:20;;;;;;;24.07;13.03;;;;;;;;;;4955977;28;20209;-63
2022/01/28 14:49:48;;;;;;;5.50;4.10;;;;;;;;;;4949623;28;20259;-63
2022/01/28 14:52:19;;;;;;;7.83;4.50;;;;;;;;;;4952528;28;20251;-63
2022/01/28 14:54:48;;;;;;;8.20;4.30;;;;;;;;;;4957179;28;20201;-64
2022/01/28 14:57:16;;;;;;;6.07;3.70;;;;;;;;;;4958334;28;20209;-62
2022/01/28 14:59:48;;;;;;;5.80;3.80;;;;;;;;;;4957673;28;20212;-63
2022/01/28 15:02:22;;;;;;;7.20;4.67;;;;;;;;;;4947524;28;20699;-63
2022/01/28 15:04:54;;;;;;;5.93;3.43;;;;;;;;;;4959287;28;20220;-64
2022/01/28 15:07:25;;;;;;;4.77;3.43;;;;;;;;;;4960458;28;20584;-62
2022/01/28 15:09:55;;;;;;;7.67;3.93;;;;;;;;;;4960067;28;20679;-62
2022/01/28 15:12:22;;;;;;;5.70;3.87;;;;;;;;;;4964267;28;20683;-64
2022/01/28 15:14:50;;;;;;;6.73;4.00;;;;;;;;;;4960948;28;20284;-63
2022/01/28 15:17:18;;;;;;;9.60;7.47;;;;;;;;;;4956100;28;20217;-63
2022/01/28 15:19:47;;;;;;;7.43;5.20;;;;;;;;;;4959260;28;20209;-62
2022/01/28 15:22:14;;;;;;;6.60;5.13;;;;;;;;;;4956695;28;20241;-64
2022/01/28 15:24:42;;;;;;;16.70;10.70;;;;;;;;;;4961790;28;21175;-64
2022/01/28 15:27:09;;;;;;;7.50;5.73;;;;;;;;;;4957972;28;20213;-64
2022/01/28 15:34:14;;;;;;;12.57;8.03;;;;;;;;;;4963195;28;20252;-63
2022/01/28 15:38:08;;;;;;;8.83;6.50;;;;;;;;;;4957049;28;20216;-63
2022/01/28 15:40:35;;;;;;;12.33;5.80;;;;;;;;;;4948962;28;20366;-64
2022/01/28 15:43:03;;;;;;;6.67;5.30;;;;;;;;;;4958050;28;20209;-63
2022/01/28 15:45:31;;;;;;;8.37;5.37;;;;;;;;;;4955625;28;20208;-64
2022/01/28 15:48:00;;;;;;;6.00;4.77;;;;;;;;;;4948570;28;20213;-64
2022/01/28 15:50:28;;;;;;;9.00;6.10;;;;;;;;;;4959036;28;20343;-64
2022/01/28 15:52:57;;;;;;;8.60;4.93;;;;;;;;;;4958447;28;20239;-64
2022/01/28 15:55:24;;;;;;;6.50;4.90;;;;;;;;;;4957751;28;20205;-63
2022/01/28 15:57:51;;;;;;;6.57;4.37;;;;;;;;;;4957326;28;20226;-63
2022/01/28 16:00:20;;;;;;;7.63;4.73;;;;;;;;;;4956665;28;20233;-65
2022/01/28 16:02:48;;;;;;;7.83;4.33;;;;;;;;;;4954951;28;20687;-62
2022/01/28 16:05:15;;;;;;;8.43;4.07;;;;;;;;;;4951205;28;20201;-63
2022/01/28 16:07:43;;;;;;;7.67;4.30;;;;;;;;;;4955112;28;20200;-63
2022/01/28 16:10:17;;;;;;;8.70;5.90;;;;;;;;;;4958101;28;20232;-63
2022/01/28 16:13:00;;;;;;;28.73;14.43;;;;;;;;;;4954470;28;20203;-64
2022/01/28 16:18:15;;;;;;;21.07;9.67;;;;;;;;;;4933791;28;20255;-63
2022/01/28 16:20:42;;;;;;;53.30;25.47;;;;;;;;;;4948496;28;20231;-62
2022/01/28 16:23:09;;;;;;;11.40;8.13;;;;;;;;;;4955173;28;20259;-63